Pittsburgh, Pennsylvania
Traffic Map
Current Weather Conditions
Pittsburgh, Pennsylvania
Few Clouds
Few Clouds
27°
Feels Like: 28°
Wind Chill: 27° Ceiling: Unl
Heat Index: 28° Visibility: 10mi
Dew Point: 18° Wind: 9mph
Humidity: 58% Direction: 300° (WNW)
Pressure: 29.93in Gusts: 17mph
Raw Report DataKAGC 232053Z 30008G15KT 10SM FEW050 27/18 A2993 RMK AO2 SLP130 T02720183 58011
Traffic Incident Summary
Active as of:
Severity:
Category:
InformationThere was an issue retrieving the traffic information for this location. Please try a different location or try again shortly.
Advertisements
Track Severe Weather on mobile